Time;durP1;ratioP1;P1;durP2;ratioP2;P2;SDS_P1;SDS_P2;PMS_P1;PMS_P2;Temp;Humidity;BMP_temperature;BMP_pressure;BME280_temperature;BME280_humidity;BME280_pressure;Samples;Min_cycle;Max_cycle;Signal;HPM_P1;HPM_P2
2022/07/08 00:02:22;;;;;;;18.77;2.70;;;;;;;;;;4880871;29;20048;-70
2022/07/08 00:04:48;;;;;;;21.17;3.10;;;;;;;;;;4865128;29;20177;-71
2022/07/08 00:07:14;;;;;;;20.10;3.08;;;;;;;;;;4877740;29;20063;-71
2022/07/08 00:09:40;;;;;;;17.65;3.13;;;;;;;;;;4879473;29;20044;-71
2022/07/08 00:12:06;;;;;;;16.15;3.03;;;;;;;;;;4892054;29;20032;-70
2022/07/08 00:14:32;;;;;;;31.17;3.30;;;;;;;;;;4889418;29;20048;-71
2022/07/08 00:16:58;;;;;;;25.48;3.00;;;;;;;;;;4880174;29;20041;-70
2022/07/08 00:19:25;;;;;;;21.15;2.88;;;;;;;;;;4893918;29;20045;-70
2022/07/08 00:21:51;;;;;;;19.25;2.70;;;;;;;;;;4880788;29;20093;-70
2022/07/08 00:24:18;;;;;;;17.75;2.60;;;;;;;;;;4880934;29;20063;-70
2022/07/08 00:26:44;;;;;;;19.75;3.15;;;15.00;98.80;;;;;;4880456;29;20044;-71
2022/07/08 00:29:10;;;;;;;19.42;3.28;;;;;;;;;;4911060;29;20044;-71
2022/07/08 00:31:36;;;;;;;20.48;3.30;;;;;;;;;;4880582;29;20041;-71
2022/07/08 00:34:02;;;;;;;14.93;2.97;;;;;;;;;;4865003;29;20072;-69
2022/07/08 00:36:28;;;;;;;16.38;2.90;;;;;;;;;;4880005;29;20048;-69
2022/07/08 00:38:55;;;;;;;26.45;3.25;;;;;;;;;;4894917;29;20092;-69
2022/07/08 00:41:23;;;;;;;14.73;2.97;;;;;;;;;;4879986;29;20123;-69
2022/07/08 00:43:49;;;;;;;21.05;3.08;;;;;;;;;;4880505;29;20040;-69
2022/07/08 00:46:16;;;;;;;22.27;3.25;;;14.70;99.80;;;;;;4879580;29;20051;-69
2022/07/08 00:48:43;;;;;;;18.10;3.40;;;15.00;99.40;;;;;;4879940;29;20043;-70
2022/07/08 00:51:12;;;;;;;18.92;2.88;;;14.90;99.90;;;;;;4880421;29;20041;-70
2022/07/08 00:53:40;;;;;;;18.98;3.25;;;14.60;99.90;;;;;;4880428;29;20067;-69
2022/07/08 00:56:07;;;;;;;27.13;2.85;;;;;;;;;;4880146;29;20047;-69
2022/07/08 00:58:33;;;;;;;16.88;3.05;;;;;;;;;;4880192;29;20131;-69
2022/07/08 01:00:59;;;;;;;21.95;2.70;;;;;;;;;;4864558;29;20549;-69
2022/07/08 01:03:25;;;;;;;22.48;3.38;;;;;;;;;;4888886;29;20056;-69
2022/07/08 01:05:51;;;;;;;14.00;2.60;;;;;;;;;;4874381;29;20501;-69
2022/07/08 01:08:17;;;;;;;20.17;3.17;;;;;;;;;;4883500;29;20401;-69
2022/07/08 01:10:44;;;;;;;20.17;3.08;;;14.40;99.80;;;;;;4884004;29;20432;-69
2022/07/08 01:13:10;;;;;;;16.55;2.85;;;;;;;;;;4883691;29;20041;-69
2022/07/08 01:15:36;;;;;;;18.50;2.50;;;;;;;;;;4883587;29;20101;-69
2022/07/08 01:18:02;;;;;;;12.80;2.60;;;;;;;;;;4883450;29;20055;-69
2022/07/08 01:20:32;;;;;;;17.20;2.90;;;14.60;99.90;;;;;;4900677;29;20038;-69
2022/07/08 01:22:58;;;;;;;21.90;3.15;;;;;;;;;;4900193;29;20047;-69
2022/07/08 01:25:24;;;;;;;24.45;2.90;;;;;;;;;;4883434;29;20080;-69
2022/07/08 01:27:50;;;;;;;21.13;2.65;;;;;;;;;;4887080;29;20127;-69
2022/07/08 01:30:16;;;;;;;14.80;2.65;;;;;;;;;;4867920;29;20044;-69
2022/07/08 01:32:44;;;;;;;19.88;3.30;;;;;;;;;;4868040;29;20128;-69
2022/07/08 01:35:11;;;;;;;24.83;2.80;;;;;;;;;;4900275;29;20048;-69
2022/07/08 01:37:37;;;;;;;24.70;3.15;;;;;;;;;;4882997;29;20048;-69
2022/07/08 01:40:03;;;;;;;20.60;3.30;;;13.00;99.90;;;;;;4883204;29;20501;-70
2022/07/08 01:42:29;;;;;;;11.88;2.40;;;;;;;;;;4900160;29;20389;-70
2022/07/08 01:44:56;;;;;;;18.25;3.00;;;14.20;99.90;;;;;;4883386;29;20037;-69
2022/07/08 01:47:22;;;;;;;20.35;3.75;;;;;;;;;;4899561;29;20362;-69
2022/07/08 01:49:48;;;;;;;14.05;2.85;;;;;;;;;;4883088;29;20123;-69
2022/07/08 01:52:14;;;;;;;30.77;3.45;;;;;;;;;;4899656;29;20064;-70
2022/07/08 01:54:40;;;;;;;19.52;2.90;;;;;;;;;;4882909;29;20446;-70
2022/07/08 01:57:15;;;;;;;14.60;3.20;;;;;;;;;;4867679;29;20040;-71
2022/07/08 01:59:42;;;;;;;14.27;3.05;;;;;;;;;;4897901;29;20397;-71
2022/07/08 02:02:08;;;;;;;24.52;3.75;;;;;;;;;;4882657;29;20430;-70
2022/07/08 02:04:34;;;;;;;21.08;2.97;;;;;;;;;;4882496;29;20052;-71
2022/07/08 02:07:00;;;;;;;16.15;2.90;;;;;;;;;;4882613;29;20044;-71
2022/07/08 02:09:26;;;;;;;19.55;3.30;;;;;;;;;;4882794;29;20045;-71
2022/07/08 02:14:37;;;;;;;16.38;2.88;;;;;;;;;;4910724;29;20127;-71
2022/07/08 02:17:03;;;;;;;15.80;3.20;;;;;;;;;;4898140;29;21504;-71
2022/07/08 02:19:30;;;;;;;17.38;3.20;;;;;;;;;;4882348;29;20127;-71
2022/07/08 02:21:56;;;;;;;21.35;2.97;;;;;;;;;;4882321;29;20175;-71
2022/07/08 02:24:22;;;;;;;23.92;4.22;;;;;;;;;;4882770;29;20161;-71
2022/07/08 02:26:48;;;;;;;22.35;3.55;;;;;;;;;;4882714;29;20402;-71
2022/07/08 02:29:14;;;;;;;18.35;3.03;;;;;;;;;;4899034;29;20053;-71
2022/07/08 02:31:40;;;;;;;17.77;2.90;;;;;;;;;;4882400;29;20123;-71
2022/07/08 02:34:06;;;;;;;19.20;3.03;;;;;;;;;;4882558;29;20060;-71
2022/07/08 02:36:32;;;;;;;18.42;3.50;;;;;;;;;;4882280;29;20127;-71
2022/07/08 02:38:58;;;;;;;14.50;2.75;;;;;;;;;;4882078;29;20048;-71
2022/07/08 02:41:24;;;;;;;18.65;3.58;;;;;;;;;;4913088;29;20127;-71
2022/07/08 02:43:50;;;;;;;22.42;3.70;;;;;;;;;;4882114;29;20045;-71
2022/07/08 02:46:17;;;;;;;21.40;3.08;;;;;;;;;;4882166;29;20044;-71
2022/07/08 02:48:43;;;;;;;19.83;3.15;;;;;;;;;;4881831;29;20502;-71
2022/07/08 02:51:09;;;;;;;17.40;3.35;;;;;;;;;;4882187;29;20040;-70
2022/07/08 02:53:35;;;;;;;25.23;3.22;;;;;;;;;;4881784;29;20040;-70
2022/07/08 02:56:01;;;;;;;21.88;2.80;;;;;;;;;;4889354;29;20044;-70
2022/07/08 02:58:28;;;;;;;16.60;3.65;;;;;;;;;;4881980;29;20048;-71
2022/07/08 03:00:54;;;;;;;20.70;2.85;;;;;;;;;;4882004;29;20501;-71
2022/07/08 03:03:23;;;;;;;28.23;3.35;;;;;;;;;;4879066;29;20052;-71
2022/07/08 03:05:49;;;;;;;16.38;3.58;;;;;;;;;;4895333;29;20041;-71
2022/07/08 03:08:15;;;;;;;17.38;3.00;;;;;;;;;;4881406;29;20100;-71
2022/07/08 03:10:41;;;;;;;17.52;3.25;;;;;;;;;;4881730;29;20063;-71
2022/07/08 03:13:07;;;;;;;26.73;3.28;;;;;;;;;;4883418;29;20131;-71
2022/07/08 03:15:33;;;;;;;27.42;4.85;;;;;;;;;;4883978;29;20041;-70
2022/07/08 03:18:00;;;;;;;17.05;3.30;;;;;;;;;;4881471;29;20043;-70
2022/07/08 03:20:26;;;;;;;21.73;3.00;;;;;;;;;;4898225;29;20076;-70
2022/07/08 03:22:52;;;;;;;16.77;3.10;;;;;;;;;;4898082;29;20123;-70
2022/07/08 03:25:18;;;;;;;17.42;3.17;;;;;;;;;;4881392;29;20104;-70
2022/07/08 03:27:44;;;;;;;34.70;3.72;;;;;;;;;;4881276;29;20072;-71
2022/07/08 03:30:10;;;;;;;23.27;3.40;;;;;;;;;;4881096;29;20048;-71
2022/07/08 03:32:36;;;;;;;21.27;3.88;;;;;;;;;;4865553;29;20060;-71
2022/07/08 03:35:03;;;;;;;20.88;3.22;;;;;;;;;;4865504;29;20092;-71
2022/07/08 03:37:29;;;;;;;16.52;3.08;;;;;;;;;;4889331;29;20127;-71
2022/07/08 03:39:55;;;;;;;31.45;5.22;;;;;;;;;;4881029;29;20041;-70
2022/07/08 03:42:21;;;;;;;15.73;3.05;;;;;;;;;;4880816;29;20048;-70
2022/07/08 03:44:47;;;;;;;16.90;3.08;;;;;;;;;;4880453;29;20089;-70
2022/07/08 03:47:13;;;;;;;26.25;3.05;;;;;;;;;;4880800;29;20052;-70
2022/07/08 03:49:39;;;;;;;29.77;3.28;;;;;;;;;;4880791;29;20052;-70
2022/07/08 03:52:06;;;;;;;19.13;2.92;;;;;;;;;;4881024;29;20048;-73
2022/07/08 03:54:32;;;;;;;19.85;3.50;;;;;;;;;;4880645;29;20076;-70
2022/07/08 03:56:58;;;;;;;18.05;3.38;;;;;;;;;;4865554;29;20489;-70
2022/07/08 03:59:24;;;;;;;21.77;3.10;;;;;;;;;;4880925;29;20068;-70
2022/07/08 04:01:50;;;;;;;17.75;2.97;;;;;;;;;;4881003;29;20044;-71
2022/07/08 04:04:17;;;;;;;19.27;3.55;;;;;;;;;;4864857;29;20075;-71
2022/07/08 04:06:43;;;;;;;17.17;3.10;;;;;;;;;;4880444;29;20047;-71
2022/07/08 04:09:09;;;;;;;22.48;3.88;;;;;;;;;;4880275;29;20044;-71
2022/07/08 04:11:36;;;;;;;19.45;2.80;;;;;;;;;;4895322;29;20049;-71
2022/07/08 04:14:03;;;;;;;29.75;3.63;;;;;;;;;;4880785;29;20056;-71
2022/07/08 04:16:29;;;;;;;21.20;3.88;;;;;;;;;;4880653;29;20127;-71
2022/07/08 04:18:55;;;;;;;20.15;3.70;;;;;;;;;;4880439;29;20040;-71
2022/07/08 04:21:24;;;;;;;17.08;4.10;;;14.50;99.90;;;;;;4880375;29;20044;-71
2022/07/08 04:23:50;;;;;;;18.73;3.30;;;;;;;;;;4888265;29;20048;-71
2022/07/08 04:26:16;;;;;;;31.70;3.70;;;;;;;;;;4880387;29;20486;-71
2022/07/08 04:28:42;;;;;;;26.20;4.25;;;;;;;;;;4880215;29;20078;-71
2022/07/08 04:31:08;;;;;;;25.42;2.97;;;;;;;;;;4880502;29;20044;-69
2022/07/08 04:33:34;;;;;;;19.75;3.30;;;;;;;;;;4880151;29;20036;-69
2022/07/08 04:36:00;;;;;;;25.15;3.45;;;;;;;;;;4879888;29;20111;-69
2022/07/08 04:38:26;;;;;;;26.15;4.25;;;;;;;;;;4879905;29;20048;-69
2022/07/08 04:40:52;;;;;;;21.58;3.65;;;;;;;;;;4881386;29;20525;-69
2022/07/08 04:43:18;;;;;;;17.00;3.03;;;;;;;;;;4884424;29;20387;-69
2022/07/08 04:45:44;;;;;;;36.03;4.07;;;;;;;;;;4884149;29;20056;-69
2022/07/08 04:48:10;;;;;;;24.35;3.88;;;;;;;;;;4883749;29;20044;-69
2022/07/08 04:50:36;;;;;;;22.80;3.67;;;;;;;;;;4884016;29;20068;-69
2022/07/08 04:53:02;;;;;;;22.35;3.47;;;;;;;;;;4884212;29;20044;-68
2022/07/08 04:55:29;;;;;;;21.20;3.50;;;;;;;;;;4883820;29;20505;-69
2022/07/08 04:57:55;;;;;;;23.10;3.45;;;;;;;;;;4868670;29;20048;-69
2022/07/08 05:00:21;;;;;;;27.90;3.65;;;;;;;;;;4883834;29;20056;-69
2022/07/08 05:02:47;;;;;;;16.85;3.67;;;;;;;;;;4883618;29;20040;-69
2022/07/08 05:05:13;;;;;;;20.95;3.60;;;;;;;;;;4883822;29;20060;-69
2022/07/08 05:07:39;;;;;;;20.00;3.45;;;;;;;;;;4884010;29;20053;-69
2022/07/08 05:10:05;;;;;;;22.13;3.42;;;16.10;99.90;;;;;;4883589;29;20066;-69
2022/07/08 05:12:31;;;;;;;13.82;3.28;;;;;;;;;;4912789;29;20470;-69
2022/07/08 05:14:57;;;;;;;35.97;4.38;;;;;;;;;;4878279;29;20044;-69
2022/07/08 05:17:24;;;;;;;20.85;3.25;;;;;;;;;;4881199;29;20070;-69
2022/07/08 05:19:50;;;;;;;29.80;4.95;;;;;;;;;;4864688;29;20049;-69
2022/07/08 05:22:16;;;;;;;32.28;3.47;;;;;;;;;;4881675;29;20134;-69
2022/07/08 05:24:42;;;;;;;22.80;4.50;;;;;;;;;;4882421;29;20471;-69
2022/07/08 05:27:08;;;;;;;24.75;4.15;;;;;;;;;;4897232;29;20359;-69
2022/07/08 05:29:34;;;;;;;22.30;3.78;;;;;;;;;;4896142;29;20044;-69
2022/07/08 05:32:00;;;;;;;21.02;3.75;;;;;;;;;;4863638;29;20041;-69
2022/07/08 05:34:26;;;;;;;19.00;3.70;;;;;;;;;;4862714;29;20123;-69
2022/07/08 05:36:52;;;;;;;26.83;4.10;;;;;;;;;;4879436;29;20045;-68
2022/07/08 05:39:18;;;;;;;22.70;3.67;;;;;;;;;;4878595;29;20052;-69
2022/07/08 05:41:44;;;;;;;26.85;4.20;;;;;;;;;;4875058;29;20105;-69
2022/07/08 05:44:11;;;;;;;24.17;3.85;;;;;;;;;;4877771;29;20100;-69
2022/07/08 05:46:37;;;;;;;20.73;4.22;;;;;;;;;;4877013;29;20053;-69
2022/07/08 05:49:03;;;;;;;37.35;3.90;;;;;;;;;;4879799;29;20040;-69
2022/07/08 05:51:29;;;;;;;33.75;4.15;;;;;;;;;;4865004;29;20127;-69
2022/07/08 05:53:55;;;;;;;21.23;4.10;;;;;;;;;;4864011;29;20089;-69
2022/07/08 05:56:24;;;;;;;35.85;4.53;;;;;;;;;;4897120;29;20036;-69
2022/07/08 05:58:50;;;;;;;20.73;4.28;;;;;;;;;;4895593;29;20052;-69
2022/07/08 06:01:16;;;;;;;23.45;4.35;;;;;;;;;;4905640;29;21343;-69
2022/07/08 06:03:42;;;;;;;26.63;4.63;;;;;;;;;;4882591;29;20056;-69
2022/07/08 06:06:09;;;;;;;22.13;3.92;;;;;;;;;;4873138;29;20052;-69
2022/07/08 06:08:36;;;;;;;22.83;4.63;;;;;;;;;;4881743;29;20053;-69
2022/07/08 06:11:02;;;;;;;28.58;4.22;;;;;;;;;;4881133;29;20451;-69
2022/07/08 06:13:28;;;;;;;18.27;4.20;;;;;;;;;;4881499;29;20048;-69
2022/07/08 06:15:54;;;;;;;29.25;4.60;;;;;;;;;;4866385;29;20048;-69
2022/07/08 06:18:21;;;;;;;18.85;4.18;;;;;;;;;;4882318;29;20040;-69
2022/07/08 06:20:47;;;;;;;33.80;5.25;;;;;;;;;;4882285;29;20109;-69
2022/07/08 06:23:13;;;;;;;22.35;3.55;;;;;;;;;;4880425;29;20080;-71
2022/07/08 06:25:39;;;;;;;15.40;4.03;;;;;;;;;;4866824;29;20113;-70
2022/07/08 06:28:05;;;;;;;26.48;5.47;;;;;;;;;;4912714;29;20041;-69
2022/07/08 06:30:31;;;;;;;21.48;4.18;;;;;;;;;;4881055;29;20073;-69
2022/07/08 06:32:59;;;;;;;23.25;4.32;;;;;;;;;;4882109;29;20456;-69
2022/07/08 06:35:26;;;;;;;21.20;3.50;;;16.70;99.90;;;;;;4898789;29;20075;-69
2022/07/08 06:37:53;;;;;;;18.23;3.70;;;;;;;;;;4898869;29;20456;-69
2022/07/08 06:40:22;;;;;;;23.55;4.28;;;;;;;;;;4898439;29;20048;-69
2022/07/08 06:42:49;;;;;;;21.15;4.30;;;16.80;99.90;;;;;;4881960;29;20052;-69
2022/07/08 06:45:15;;;;;;;27.55;4.35;;;;;;;;;;4883877;29;20044;-69
2022/07/08 06:47:42;;;;;;;23.27;3.67;;;;;;;;;;4881921;29;20103;-69
2022/07/08 06:50:08;;;;;;;28.75;3.90;;;;;;;;;;4898471;29;20123;-69
2022/07/08 06:52:34;;;;;;;25.70;3.85;;;;;;;;;;4881556;29;20560;-69
2022/07/08 06:55:00;;;;;;;26.45;3.75;;;;;;;;;;4881958;29;20358;-69
2022/07/08 06:57:27;;;;;;;22.92;3.83;;;17.10;99.90;;;;;;4898219;29;20040;-69
2022/07/08 06:59:53;;;;;;;18.38;3.38;;;;;;;;;;4881488;29;20041;-69
2022/07/08 07:02:19;;;;;;;20.02;4.25;;;;;;;;;;4881501;29;20457;-69
2022/07/08 07:04:45;;;;;;;28.98;4.00;;;;;;;;;;4880774;29;20052;-69
2022/07/08 07:07:11;;;;;;;32.78;4.30;;;;;;;;;;4880987;29;20114;-69
2022/07/08 07:09:38;;;;;;;24.73;3.50;;;;;;;;;;4869398;29;20573;-69
2022/07/08 07:12:07;;;;;;;26.98;5.32;;;;;;;;;;4877093;29;20378;-68
2022/07/08 07:14:33;;;;;;;25.48;3.90;;;;;;;;;;4863839;29;20044;-68
2022/07/08 07:16:59;;;;;;;22.13;4.03;;;;;;;;;;4879186;29;20033;-68
2022/07/08 07:19:26;;;;;;;24.50;3.33;;;;;;;;;;4881135;29;20092;-68
2022/07/08 07:21:52;;;;;;;20.83;4.00;;;;;;;;;;4881295;29;20051;-69
2022/07/08 07:24:18;;;;;;;25.00;3.70;;;;;;;;;;4881129;29;20041;-70
2022/07/08 07:26:46;;;;;;;23.52;3.83;;;17.30;99.90;;;;;;4881233;29;20055;-70
2022/07/08 07:29:12;;;;;;;24.30;3.92;;;;;;;;;;4897888;29;20048;-70
2022/07/08 07:31:38;;;;;;;23.45;3.35;;;;;;;;;;4881110;29;20041;-71
2022/07/08 07:34:04;;;;;;;23.88;4.30;;;;;;;;;;4897798;29;20083;-68
2022/07/08 07:36:30;;;;;;;20.52;3.65;;;;;;;;;;4881145;29;20044;-68
2022/07/08 07:38:57;;;;;;;20.05;3.22;;;;;;;;;;4865295;29;20096;-68
2022/07/08 07:41:23;;;;;;;19.35;3.72;;;;;;;;;;4880836;29;20092;-67
2022/07/08 07:43:49;;;;;;;24.75;3.80;;;;;;;;;;4880943;29;20501;-67
2022/07/08 07:46:15;;;;;;;22.10;3.40;;;;;;;;;;4897723;29;20041;-67
2022/07/08 07:48:41;;;;;;;20.92;3.03;;;;;;;;;;4897415;29;20049;-65
2022/07/08 07:51:07;;;;;;;15.65;3.50;;;;;;;;;;4897473;29;20040;-68
2022/07/08 07:53:34;;;;;;;13.55;3.28;;;;;;;;;;4880715;29;20492;-68
2022/07/08 07:56:00;;;;;;;17.48;3.33;;;;;;;;;;4880804;29;20045;-67
2022/07/08 07:58:26;;;;;;;20.05;3.47;;;;;;;;;;4880584;29;20052;-68
2022/07/08 08:00:52;;;;;;;17.45;4.25;;;18.00;99.90;;;;;;4880795;29;20037;-68
2022/07/08 08:03:19;;;;;;;18.02;4.25;;;;;;;;;;4879371;29;20406;-69
2022/07/08 08:05:45;;;;;;;20.92;3.92;;;;;;;;;;4874701;29;20037;-69
2022/07/08 08:08:11;;;;;;;31.15;4.00;;;;;;;;;;4863164;29;20147;-69
2022/07/08 08:10:38;;;;;;;25.65;4.30;;;;;;;;;;4873874;29;20049;-69
2022/07/08 08:13:04;;;;;;;14.57;3.00;;;18.30;99.90;;;;;;4866061;29;20124;-69
2022/07/08 08:15:31;;;;;;;21.48;3.53;;;;;;;;;;4881187;29;20127;-69
2022/07/08 08:17:57;;;;;;;20.40;3.50;;;18.20;99.80;;;;;;4881502;29;20044;-69
2022/07/08 08:20:25;;;;;;;17.85;2.92;;;18.30;99.90;;;;;;4851326;29;20044;-69
2022/07/08 08:22:52;;;;;;;20.17;2.92;;;18.30;99.50;;;;;;4874539;29;20052;-70
2022/07/08 08:25:18;;;;;;;17.30;3.20;;;;;;;;;;4881325;29;20061;-70
2022/07/08 08:27:45;;;;;;;16.25;3.00;;;;;;;;;;4851677;29;20067;-69
2022/07/08 08:30:11;;;;;;;21.40;2.95;;;;;;;;;;4883411;29;20052;-69
2022/07/08 08:32:37;;;;;;;23.90;3.47;;;;;;;;;;4886017;29;20549;-76
2022/07/08 08:35:03;;;;;;;14.57;2.97;;;19.40;99.90;;;;;;4889789;29;20060;-73
2022/07/08 08:37:29;;;;;;;16.33;2.70;;;;;;;;;;4876587;29;20505;-71
2022/07/08 08:39:56;;;;;;;18.33;3.00;;;;;;;;;;4851338;29;20051;-71
2022/07/08 08:42:22;;;;;;;15.68;2.83;;;;;;;;;;4884868;29;20452;-71
2022/07/08 08:44:49;;;;;;;13.95;2.80;;;;;;;;;;4881681;29;20051;-69
2022/07/08 08:47:16;;;;;;;13.23;3.17;;;18.90;97.80;;;;;;4868318;29;20080;-69
2022/07/08 08:49:42;;;;;;;12.27;2.78;;;;;;;;;;4847298;29;20049;-69
2022/07/08 08:52:10;;;;;;;21.70;3.80;;;18.90;97.70;;;;;;4875256;29;20458;-69
2022/07/08 08:54:36;;;;;;;20.95;2.92;;;;;;;;;;4873062;29;20044;-69
2022/07/08 08:57:04;;;;;;;21.35;2.75;;;;;;;;;;4862523;29;20049;-69
2022/07/08 08:59:33;;;;;;;19.88;3.30;;;19.10;96.80;;;;;;4874908;29;20080;-69
2022/07/08 09:02:00;;;;;;;23.23;4.47;;;19.10;97.20;;;;;;4881056;29;20051;-69
2022/07/08 09:04:29;;;;;;;28.70;3.97;;;19.30;97.30;;;;;;4881062;29;20064;-69
2022/07/08 09:06:55;;;;;;;40.72;5.55;;;;;;;;;;4881020;29;20045;-69
2022/07/08 09:09:21;;;;;;;16.48;3.28;;;;;;;;;;4880912;29;20045;-69
2022/07/08 09:11:47;;;;;;;14.55;2.90;;;;;;;;;;4865029;29;20041;-69
2022/07/08 09:14:13;;;;;;;11.88;2.50;;;;;;;;;;4887210;29;20036;-69
2022/07/08 09:16:39;;;;;;;14.07;2.78;;;;;;;;;;4881201;29;20049;-69
2022/07/08 09:19:14;;;;;;;15.68;3.30;;;19.70;96.40;;;;;;4880940;29;20048;-69
2022/07/08 09:21:51;;;;;;;11.68;2.83;;;19.70;96.40;;;;;;4864959;29;20200;-68
2022/07/08 09:24:18;;;;;;;12.07;2.90;;;19.80;95.70;;;;;;4867170;29;20453;-69
2022/07/08 09:26:44;;;;;;;11.90;2.60;;;;;;;;;;4864054;29;20052;-70
2022/07/08 09:29:10;;;;;;;12.23;3.05;;;;;;;;;;4884569;29;20401;-68
2022/07/08 09:31:38;;;;;;;15.43;3.33;;;;;;;;;;4868415;29;20081;-69
2022/07/08 09:34:09;;;;;;;13.32;3.03;;;19.70;95.80;;;;;;4865631;29;20447;-69
2022/07/08 09:36:48;;;;;;;12.47;3.33;;;;;;;;;;4865556;29;20509;-69
2022/07/08 09:39:27;;;;;;;14.52;3.05;;;20.30;94.70;;;;;;4865475;29;20049;-69
2022/07/08 09:41:53;;;;;;;13.52;3.00;;;;;;;;;;4873107;29;20041;-69
2022/07/08 09:44:22;;;;;;;17.73;3.42;;;20.20;95.70;;;;;;4866120;29;20090;-69
2022/07/08 09:46:49;;;;;;;15.85;3.10;;;;;;;;;;4883124;29;20053;-69
2022/07/08 09:49:31;;;;;;;21.63;3.38;;;20.20;96.00;;;;;;4884006;29;20084;-69
2022/07/08 09:51:59;;;;;;;17.35;3.20;;;20.20;95.40;;;;;;4885194;29;20093;-69
2022/07/08 09:54:26;;;;;;;15.48;3.67;;;21.00;97.40;;;;;;4873827;29;20032;-68
2022/07/08 09:57:03;;;;;;;18.33;3.38;;;20.20;95.10;;;;;;4899530;29;20055;-68
2022/07/08 09:59:30;;;;;;;18.25;4.22;;;20.20;95.60;;;;;;4882854;29;20140;-69
2022/07/08 10:01:57;;;;;;;16.35;3.40;;;;;;;;;;4910800;29;20044;-69
2022/07/08 10:04:24;;;;;;;23.30;4.43;;;;;;;;;;4900911;29;20067;-69
2022/07/08 10:06:54;;;;;;;25.58;4.90;;;20.30;95.90;;;;;;4887114;29;20124;-69
2022/07/08 10:09:21;;;;;;;26.75;4.45;;;20.20;96.40;;;;;;4919198;29;20048;-69
2022/07/08 10:11:49;;;;;;;12.55;4.15;;;20.10;96.60;;;;;;4919263;29;20400;-69
2022/07/08 10:14:16;;;;;;;20.85;4.50;;;20.00;96.60;;;;;;4919447;29;20381;-69
2022/07/08 10:16:43;;;;;;;14.52;4.10;;;20.20;96.70;;;;;;4919477;29;20036;-69
2022/07/08 10:19:13;;;;;;;15.65;5.28;;;20.10;97.00;;;;;;4886922;29;20044;-70
2022/07/08 10:21:43;;;;;;;19.60;4.78;;;20.40;96.90;;;;;;4887022;29;20400;-69
2022/07/08 10:24:14;;;;;;;20.42;4.70;;;20.30;96.70;;;;;;4902420;29;20052;-69
2022/07/08 10:26:40;;;;;;;20.13;4.72;;;;;;;;;;4902595;29;20111;-69
2022/07/08 10:29:13;;;;;;;19.67;4.70;;;20.70;99.90;;;;;;4902266;29;20059;-69
2022/07/08 10:31:43;;;;;;;10.77;4.03;;;19.20;99.90;;;;;;4902515;29;20099;-69
2022/07/08 10:34:11;;;;;;;17.63;4.57;;;20.30;96.90;;;;;;4918995;29;20111;-69
2022/07/08 10:36:55;;;;;;;26.98;4.25;;;21.00;99.90;;;;;;4901965;29;20036;-69
2022/07/08 10:39:36;;;;;;;22.73;4.43;;;20.30;99.90;;;;;;4901055;29;20040;-69
2022/07/08 10:42:04;;;;;;;18.95;4.78;;;20.10;97.10;;;;;;4902038;29;20052;-69
2022/07/08 10:44:46;;;;;;;25.08;5.43;;;;;;;;;;4902019;29;20489;-69
2022/07/08 10:47:32;;;;;;;27.00;6.20;;;;;;;;;;4901664;29;20044;-69
2022/07/08 10:50:08;;;;;;;18.92;4.82;;;20.70;97.40;;;;;;4901695;29;20044;-68
2022/07/08 10:52:40;;;;;;;20.90;5.18;;;21.30;99.90;;;;;;4901689;29;20123;-69
2022/07/08 10:55:14;;;;;;;31.23;5.18;;;21.30;99.90;;;;;;4901686;29;20040;-69
2022/07/08 10:57:57;;;;;;;20.42;4.90;;;20.60;95.70;;;;;;4901432;29;20086;-69
2022/07/08 11:00:23;;;;;;;;;;;20.70;97.20;;;;;;4886478;29;20087;-70
2022/07/08 11:02:50;;;;;;;21.15;5.22;;;;;;;;;;4918289;29;19926;-69
2022/07/08 11:05:54;;;;;;;20.00;5.75;;;20.40;97.20;;;;;;4901557;29;20050;-69
2022/07/08 11:08:21;;;;;;;20.90;5.80;;;;;;;;;;4889157;29;20051;-69
2022/07/08 11:10:48;;;;;;;25.30;5.53;;;20.60;96.80;;;;;;4901392;29;20059;-69
2022/07/08 11:13:14;;;;;;;22.00;5.60;;;;;;;;;;4918299;29;20044;-70
2022/07/08 11:15:40;;;;;;;22.08;5.40;;;;;;;;;;4901340;29;20040;-69
2022/07/08 11:18:06;;;;;;;21.80;5.07;;;20.30;99.90;;;;;;4901145;29;20103;-69
2022/07/08 11:20:32;;;;;;;30.73;5.90;;;21.00;99.90;;;;;;4901184;29;20500;-69
2022/07/08 11:22:58;;;;;;;25.63;5.85;;;;;;;;;;4901408;29;20052;-69
2022/07/08 11:25:25;;;;;;;25.67;5.75;;;;;;;;;;4918360;29;20119;-69
2022/07/08 11:27:51;;;;;;;25.20;6.32;;;;;;;;;;4901015;29;20047;-69
2022/07/08 11:30:17;;;;;;;38.00;6.75;;;;;;;;;;4900886;29;20136;-69
2022/07/08 11:32:48;;;;;;;23.83;6.38;;;20.70;96.60;;;;;;4918001;29;20055;-69
2022/07/08 11:35:14;;;;;;;17.90;5.25;;;;;;;;;;4900876;29;20044;-69
2022/07/08 11:37:46;;;;;;;20.48;6.55;;;20.90;95.60;;;;;;4885616;29;20079;-69
2022/07/08 11:40:12;;;;;;;;;;;21.30;97.20;;;;;;4901312;29;20051;-69
2022/07/08 11:42:39;;;;;;;23.15;6.07;;;21.50;99.90;;;;;;4900666;29;19925;-69
2022/07/08 11:45:06;;;;;;;26.15;7.35;;;21.50;99.90;;;;;;4917712;29;20392;-69
2022/07/08 11:47:32;;;;;;;20.65;5.78;;;21.60;95.50;;;;;;4885151;29;20087;-70
2022/07/08 11:49:58;;;;;;;24.88;6.20;;;;;;;;;;4900237;29;20075;-69
2022/07/08 11:52:27;;;;;;;23.48;6.25;;;21.90;95.90;;;;;;4900553;29;20058;-69
2022/07/08 11:54:54;;;;;;;22.58;6.00;;;22.40;99.90;;;;;;4901485;29;20047;-70
2022/07/08 11:57:19;;;;;;;21.75;6.05;;;21.10;99.90;;;;;;4900733;29;20040;-68
2022/07/08 11:59:47;;;;;;;27.67;6.03;;;21.20;95.40;;;;;;4917362;29;20055;-70
2022/07/08 12:02:18;;;;;;;24.95;5.72;;;22.80;99.90;;;;;;4917279;29;20503;-70
2022/07/08 12:04:45;;;;;;;20.95;5.10;;;22.40;95.30;;;;;;4900398;29;20414;-70
2022/07/08 12:07:26;;;;;;;23.00;5.85;;;22.30;99.30;;;;;;4884795;29;20050;-70
2022/07/08 12:09:57;;;;;;;22.00;5.93;;;22.20;94.60;;;;;;4900330;29;20060;-69
2022/07/08 12:12:24;;;;;;;28.92;5.00;;;22.20;94.80;;;;;;4900223;29;20044;-70
2022/07/08 12:14:50;;;;;;;23.48;5.25;;;21.50;99.30;;;;;;4900630;29;20116;-69
2022/07/08 12:17:27;;;;;;;23.08;5.20;;;23.00;99.10;;;;;;4900291;29;20051;-70
2022/07/08 12:19:54;;;;;;;20.00;4.70;;;22.50;94.10;;;;;;4917238;29;20044;-70
2022/07/08 12:22:48;;;;;;;28.48;6.22;;;22.40;98.70;;;;;;4900493;29;20048;-70
2022/07/08 12:25:16;;;;;;;30.55;6.15;;;22.70;99.10;;;;;;4900365;29;20039;-70
2022/07/08 12:27:43;;;;;;;21.50;5.38;;;22.40;99.10;;;;;;4900543;29;20040;-70
2022/07/08 12:30:10;;;;;;;35.92;6.45;;;23.10;99.00;;;;;;4900212;29;20515;-70
2022/07/08 12:32:47;;;;;;;29.23;5.47;;;23.30;98.90;;;;;;4900550;29;20400;-70
2022/07/08 12:35:13;;;;;;;23.85;5.32;;;22.20;98.50;;;;;;4869318;29;20080;-70
2022/07/08 12:37:39;;;;;;;17.95;5.13;;;;;;;;;;4900100;29;20525;-70
2022/07/08 12:40:18;;;;;;;22.98;5.13;;;22.50;96.70;;;;;;4900298;29;20512;-69
2022/07/08 12:43:08;;;;;;;26.30;6.35;;;22.70;93.70;;;;;;4899961;29;20052;-68
2022/07/08 12:45:34;;;;;;;28.77;6.10;;;22.40;97.90;;;;;;4899856;29;20054;-68
2022/07/08 12:48:00;;;;;;;33.55;6.10;;;23.10;98.20;;;;;;4899947;29;20044;-68
2022/07/08 12:50:27;;;;;;;22.95;5.78;;;23.00;97.80;;;;;;4889905;29;20036;-68
2022/07/08 12:52:53;;;;;;;57.67;8.07;;;22.60;97.10;;;;;;4865465;29;20496;-69
2022/07/08 12:55:19;;;;;;;24.85;5.53;;;23.90;97.50;;;;;;4881139;29;20040;-69
2022/07/08 12:57:45;;;;;;;23.08;4.57;;;;;;;;;;4897977;29;20041;-69
2022/07/08 13:00:11;;;;;;;26.52;5.30;;;23.00;97.40;;;;;;4881450;29;20071;-69
2022/07/08 13:02:38;;;;;;;22.80;4.75;;;23.20;97.60;;;;;;4900266;29;20118;-69
2022/07/08 13:05:04;;;;;;;24.30;4.68;;;23.60;95.80;;;;;;4869581;29;20505;-68
2022/07/08 13:07:30;;;;;;;27.17;5.07;;;23.20;93.10;;;;;;4884674;29;20176;-69
2022/07/08 13:09:57;;;;;;;17.80;4.45;;;;;;;;;;4884623;29;20132;-69
2022/07/08 13:12:23;;;;;;;22.65;4.50;;;24.40;97.20;;;;;;4884669;29;20052;-68
2022/07/08 13:14:50;;;;;;;23.90;4.95;;;24.00;96.90;;;;;;4869398;29;20128;-68
2022/07/08 13:17:16;;;;;;;18.88;4.90;;;23.30;96.40;;;;;;4901806;29;20401;-68
2022/07/08 13:19:42;;;;;;;23.73;4.80;;;;;;;;;;4854089;29;20045;-69
2022/07/08 13:22:10;;;;;;;32.15;5.45;;;23.90;97.00;;;;;;4884729;29;20638;-69
2022/07/08 13:24:37;;;;;;;22.40;4.88;;;23.10;97.10;;;;;;4884446;29;20493;-69
2022/07/08 13:27:03;;;;;;;19.38;5.18;;;22.60;97.10;;;;;;4901276;29;20378;-69
2022/07/08 13:29:29;;;;;;;20.92;4.30;;;23.90;97.00;;;;;;4884435;29;20136;-69
2022/07/08 13:31:55;;;;;;;21.20;4.68;;;22.50;96.70;;;;;;4884599;29;20072;-69
2022/07/08 13:34:22;;;;;;;20.70;5.07;;;23.40;96.70;;;;;;4901297;29;20055;-69
2022/07/08 13:36:51;;;;;;;22.77;4.88;;;23.90;96.70;;;;;;4901007;29;20124;-69
2022/07/08 13:39:17;;;;;;;31.13;5.53;;;;;;;;;;4884485;29;20049;-69
2022/07/08 13:41:44;;;;;;;20.95;5.00;;;22.90;96.70;;;;;;4868581;29;20052;-69
2022/07/08 13:44:10;;;;;;;22.50;5.25;;;23.70;97.20;;;;;;4884256;29;20059;-69
2022/07/08 13:46:36;;;;;;;20.63;4.70;;;;;;;;;;4868730;29;20044;-69
2022/07/08 13:49:02;;;;;;;21.45;4.70;;;22.40;96.80;;;;;;4884217;29;20050;-69
2022/07/08 13:51:29;;;;;;;21.63;4.72;;;23.40;97.20;;;;;;4901186;29;20475;-69
2022/07/08 13:53:55;;;;;;;13.48;3.83;;;23.80;97.00;;;;;;4884146;29;20128;-69